createdAt,value
2023-01-18T00:01:32.549Z,14.51
2023-01-18T00:04:00.559Z,14.54
2023-01-18T00:06:28.573Z,14.51
2023-01-18T00:08:56.971Z,14.49
2023-01-18T00:11:24.925Z,14.55
2023-01-18T00:13:54.464Z,14.52
2023-01-18T00:16:25.999Z,14.52
2023-01-18T00:18:55.242Z,14.59
2023-01-18T00:21:24.333Z,14.43
2023-01-18T00:23:52.438Z,14.88
2023-01-18T00:26:20.485Z,14.81
2023-01-18T00:28:48.443Z,14.75
2023-01-18T00:31:19.944Z,14.57
2023-01-18T00:33:49.383Z,14.60
2023-01-18T00:36:18.180Z,14.97
2023-01-18T00:38:53.262Z,14.80
2023-01-18T00:41:22.600Z,14.91
2023-01-18T00:43:49.977Z,14.91
2023-01-18T00:46:21.012Z,14.85
2023-01-18T00:48:49.381Z,14.73
2023-01-18T00:51:20.377Z,14.53
2023-01-18T00:53:48.696Z,14.42
2023-01-18T00:56:21.968Z,14.36
2023-01-18T00:58:50.559Z,14.17
2023-01-18T01:01:20.229Z,14.09
2023-01-18T01:04:05.358Z,13.89
2023-01-18T01:06:47.475Z,13.35
2023-01-18T01:09:18.774Z,13.69
2023-01-18T01:12:01.526Z,13.70
2023-01-18T01:14:47.044Z,13.64
2023-01-18T01:17:33.803Z,13.66
2023-01-18T01:20:19.620Z,13.46
2023-01-18T01:23:04.870Z,13.39
2023-01-18T01:25:50.291Z,13.43
2023-01-18T01:28:18.199Z,12.76
2023-01-18T01:30:46.184Z,13.17
2023-01-18T01:33:15.759Z,13.23
2023-01-18T01:35:44.360Z,13.23
2023-01-18T01:38:12.461Z,12.55
2023-01-18T01:40:40.327Z,13.03
2023-01-18T01:43:13.737Z,12.93
2023-01-18T01:45:42.411Z,12.99
2023-01-18T01:48:11.773Z,12.76
2023-01-18T01:50:41.833Z,13.03
2023-01-18T01:53:12.074Z,12.95
2023-01-18T01:55:44.285Z,12.80
2023-01-18T01:58:16.201Z,12.78
2023-01-18T02:00:45.446Z,12.87
2023-01-18T02:03:19.177Z,12.88
2023-01-18T02:05:54.813Z,12.85
2023-01-18T02:08:23.523Z,12.99
2023-01-18T02:10:52.039Z,12.79
2023-01-18T02:13:22.217Z,12.67
2023-01-18T02:16:00.695Z,12.66
2023-01-18T02:18:33.593Z,12.22
2023-01-18T02:21:20.161Z,12.48
2023-01-18T02:24:21.197Z,12.70
2023-01-18T02:27:02.098Z,12.77
2023-01-18T02:30:05.489Z,13.04
2023-01-18T02:32:47.335Z,13.56
2023-01-18T02:35:21.643Z,13.52
2023-01-18T02:37:57.002Z,13.67
2023-01-18T02:40:34.184Z,13.84
2023-01-18T02:43:22.652Z,13.65
2023-01-18T02:46:09.957Z,13.68
2023-01-18T02:48:40.476Z,14.02
2023-01-18T02:51:09.206Z,14.31
2023-01-18T02:53:41.316Z,14.17
2023-01-18T02:56:15.116Z,14.00
2023-01-18T02:58:47.793Z,13.95
2023-01-18T03:01:22.376Z,13.91
2023-01-18T03:03:52.611Z,13.82
2023-01-18T03:06:24.971Z,13.61
2023-01-18T03:08:56.136Z,13.55
2023-01-18T03:11:31.787Z,13.39
2023-01-18T03:14:09.539Z,13.20
2023-01-18T03:16:58.023Z,13.17
2023-01-18T03:19:55.327Z,13.08
2023-01-18T03:22:48.633Z,13.30
2023-01-18T03:25:19.289Z,13.50
2023-01-18T03:28:08.113Z,14.59
2023-01-18T03:30:55.804Z,14.75
2023-01-18T03:33:47.056Z,14.74
2023-01-18T03:36:19.404Z,14.71
2023-01-18T03:38:51.578Z,14.65
2023-01-18T03:41:20.769Z,14.74
2023-01-18T03:43:51.320Z,14.65
2023-01-18T03:46:22.594Z,14.20
2023-01-18T03:48:52.058Z,14.37
2023-01-18T03:51:27.041Z,14.34
2023-01-18T03:54:02.546Z,14.47
2023-01-18T03:56:37.650Z,14.49
2023-01-18T03:59:06.371Z,14.70
2023-01-18T04:01:34.894Z,14.22
2023-01-18T04:04:04.537Z,14.62
2023-01-18T04:06:34.141Z,14.66
2023-01-18T04:09:02.093Z,14.81
2023-01-18T04:11:30.185Z,14.77
2023-01-18T04:13:58.179Z,14.78
2023-01-18T04:16:26.141Z,14.50
2023-01-18T04:18:55.709Z,14.92
2023-01-18T04:21:25.133Z,15.21
2023-01-18T04:23:53.075Z,14.99
2023-01-18T04:26:21.000Z,15.22
2023-01-18T04:28:48.930Z,15.12
2023-01-18T04:31:17.264Z,15.05
2023-01-18T04:33:45.895Z,15.07
2023-01-18T04:36:13.801Z,15.17
2023-01-18T04:38:43.085Z,15.20
2023-01-18T04:41:11.031Z,15.09
2023-01-18T04:43:39.117Z,14.82
2023-01-18T04:46:07.063Z,15.16
2023-01-18T04:48:35.005Z,15.07
2023-01-18T04:51:03.498Z,15.13
2023-01-18T04:53:34.882Z,15.16
2023-01-18T04:56:05.499Z,15.24
2023-01-18T04:58:33.726Z,14.93
2023-01-18T05:01:03.853Z,15.14
2023-01-18T05:03:38.142Z,15.04
2023-01-18T05:06:07.406Z,14.84
2023-01-18T05:08:36.141Z,14.91
2023-01-18T05:11:07.821Z,15.06
2023-01-18T05:13:36.940Z,15.06
2023-01-18T05:16:07.297Z,14.16
2023-01-18T05:18:35.454Z,15.26
2023-01-18T05:21:03.422Z,15.23
2023-01-18T05:23:31.681Z,14.72
2023-01-18T05:26:00.138Z,15.29
2023-01-18T05:28:38.426Z,15.40
2023-01-18T05:31:06.674Z,15.31
2023-01-18T05:33:35.839Z,15.28
2023-01-18T05:36:04.004Z,15.35
2023-01-18T05:38:32.085Z,14.86
2023-01-18T05:41:00.161Z,15.29
2023-01-18T05:43:30.183Z,15.32
2023-01-18T05:45:58.593Z,15.15
2023-01-18T05:48:27.490Z,14.93
2023-01-18T05:50:55.669Z,15.16
2023-01-18T05:53:24.799Z,15.49
2023-01-18T05:55:57.497Z,15.54
2023-01-18T05:58:26.144Z,15.52
2023-01-18T06:00:56.333Z,15.54
2023-01-18T06:03:25.930Z,15.50
2023-01-18T06:05:54.030Z,15.56
2023-01-18T06:08:24.897Z,15.77
2023-01-18T06:10:56.986Z,15.92
2023-01-18T06:13:27.971Z,15.94
2023-01-18T06:15:58.431Z,15.77
2023-01-18T06:18:28.553Z,15.70
2023-01-18T06:20:59.123Z,15.62
2023-01-18T06:23:30.591Z,15.59
2023-01-18T06:25:59.255Z,15.61
2023-01-18T06:28:29.718Z,15.61
2023-01-18T06:31:00.673Z,15.47
2023-01-18T06:33:31.496Z,15.62
2023-01-18T06:36:01.485Z,15.56
2023-01-18T06:38:29.733Z,14.46
2023-01-18T06:40:58.376Z,15.52
2023-01-18T06:43:26.599Z,15.46
2023-01-18T06:45:55.920Z,15.22
2023-01-18T06:48:26.439Z,15.45
2023-01-18T06:50:57.165Z,14.44
2023-01-18T06:53:25.902Z,15.65
2023-01-18T06:55:55.080Z,15.61
2023-01-18T06:58:23.130Z,15.76
2023-01-18T07:00:52.584Z,15.81
2023-01-18T07:03:21.343Z,16.36
2023-01-18T07:05:50.776Z,16.69
2023-01-18T07:08:23.450Z,16.59
2023-01-18T07:10:52.663Z,16.95
2023-01-18T07:13:21.469Z,17.29
2023-01-18T07:15:56.701Z,17.39
2023-01-18T07:18:25.278Z,17.25
2023-01-18T07:21:03.102Z,17.42
2023-01-18T07:23:33.576Z,17.57
2023-01-18T07:26:02.902Z,17.22
2023-01-18T07:28:32.009Z,17.26
2023-01-18T07:31:02.209Z,17.55
2023-01-18T07:33:31.218Z,17.37
2023-01-18T07:36:00.640Z,17.53
2023-01-18T07:38:29.691Z,17.61
2023-01-18T07:41:03.195Z,17.61
2023-01-18T07:43:31.695Z,17.63
2023-01-18T07:46:00.521Z,17.87
2023-01-18T07:48:29.557Z,18.17
2023-01-18T07:50:59.187Z,18.44
2023-01-18T07:53:29.609Z,18.31
2023-01-18T07:56:00.749Z,17.93
2023-01-18T07:58:29.467Z,18.28
2023-01-18T08:01:02.904Z,17.51
2023-01-18T08:03:30.926Z,18.55
2023-01-18T08:05:59.691Z,18.62
2023-01-18T08:08:29.970Z,18.47
2023-01-18T08:10:58.569Z,18.58
2023-01-18T08:13:27.523Z,18.76
2023-01-18T08:15:56.045Z,18.69
2023-01-18T08:18:26.865Z,18.76
2023-01-18T08:20:55.381Z,18.23
2023-01-18T08:23:23.648Z,18.87
2023-01-18T08:25:53.008Z,18.82
2023-01-18T08:28:21.142Z,18.71
2023-01-18T08:30:50.013Z,18.35
2023-01-18T08:33:18.485Z,18.20
2023-01-18T08:35:48.203Z,18.54
2023-01-18T08:38:17.365Z,19.00
2023-01-18T08:40:45.291Z,18.81
2023-01-18T08:43:14.555Z,18.61
2023-01-18T08:45:42.666Z,18.71
2023-01-18T08:48:12.327Z,18.54
2023-01-18T08:50:42.930Z,18.33
2023-01-18T08:53:11.174Z,18.24
2023-01-18T08:55:40.527Z,18.39
2023-01-18T08:58:10.090Z,18.31
2023-01-18T09:00:40.504Z,18.29
2023-01-18T09:03:08.600Z,18.12
2023-01-18T09:05:38.039Z,18.28
2023-01-18T09:08:06.367Z,18.75
2023-01-18T09:10:37.606Z,19.15
2023-01-18T09:13:05.988Z,19.62
2023-01-18T09:15:34.513Z,19.80
2023-01-18T09:18:06.458Z,19.57
2023-01-18T09:20:36.573Z,19.30
2023-01-18T09:23:08.393Z,19.41
2023-01-18T09:25:37.052Z,19.36
2023-01-18T09:28:06.181Z,19.22
2023-01-18T09:30:35.929Z,19.39
2023-01-18T09:33:05.463Z,19.46
2023-01-18T09:35:33.873Z,18.58
2023-01-18T09:38:01.788Z,18.56
2023-01-18T09:40:44.228Z,18.77
2023-01-18T09:43:18.204Z,18.74
2023-01-18T09:45:49.077Z,18.70
2023-01-18T09:48:29.213Z,18.82
2023-01-18T09:51:03.407Z,18.75
2023-01-18T09:53:45.580Z,18.49
2023-01-18T09:56:19.661Z,18.79
2023-01-18T09:59:00.861Z,19.02
2023-01-18T10:01:33.450Z,19.04
2023-01-18T10:04:09.030Z,18.58
2023-01-18T10:06:47.915Z,18.96
2023-01-18T10:09:19.289Z,18.61
2023-01-18T10:11:55.982Z,19.07
2023-01-18T10:14:35.793Z,19.06
2023-01-18T10:17:06.430Z,19.32
2023-01-18T10:19:35.907Z,19.95
2023-01-18T10:22:08.339Z,19.81
2023-01-18T10:24:49.546Z,19.25
2023-01-18T10:27:49.643Z,19.55
2023-01-18T10:30:42.345Z,19.66
2023-01-18T10:33:19.413Z,19.56
2023-01-18T10:35:51.601Z,19.56
2023-01-18T10:38:24.221Z,19.68
2023-01-18T10:40:57.698Z,20.45
2023-01-18T10:43:27.306Z,19.65
2023-01-18T10:45:56.138Z,19.70
2023-01-18T10:48:30.675Z,19.69
2023-01-18T10:51:02.582Z,19.36
2023-01-18T10:53:32.777Z,19.85
2023-01-18T10:56:07.831Z,19.45
2023-01-18T10:58:45.552Z,18.92
2023-01-18T11:01:17.738Z,19.49
2023-01-18T11:03:48.351Z,19.11
2023-01-18T11:06:20.590Z,19.11
2023-01-18T11:08:49.913Z,18.97
2023-01-18T11:11:49.205Z,19.12
2023-01-18T11:14:29.648Z,18.34
2023-01-18T11:17:02.281Z,19.22
2023-01-18T11:19:30.941Z,19.29
2023-01-18T11:22:01.037Z,19.88
2023-01-18T11:24:31.785Z,20.05
2023-01-18T11:27:01.847Z,19.97
2023-01-18T11:29:33.422Z,20.19
2023-01-18T11:32:06.945Z,19.66
2023-01-18T11:34:37.193Z,19.40
2023-01-18T11:37:30.322Z,19.51
2023-01-18T11:39:58.281Z,20.14
2023-01-18T11:42:30.219Z,20.23
2023-01-18T11:45:19.075Z,20.37
2023-01-18T11:47:59.137Z,19.03
2023-01-18T11:50:33.163Z,19.68
2023-01-18T11:53:14.013Z,19.72
2023-01-18T11:55:48.067Z,19.91
2023-01-18T11:58:24.751Z,20.46
2023-01-18T12:01:08.301Z,20.49
2023-01-18T12:03:58.290Z,20.47
2023-01-18T12:06:38.910Z,20.79
2023-01-18T12:09:25.666Z,20.74
2023-01-18T12:12:18.579Z,21.29
2023-01-18T12:15:09.724Z,21.78
2023-01-18T12:17:56.454Z,21.47
2023-01-18T12:20:35.906Z,21.59
2023-01-18T12:23:24.421Z,21.81
2023-01-18T12:26:12.508Z,20.87
2023-01-18T12:28:58.913Z,20.94
2023-01-18T12:31:40.926Z,19.80
2023-01-18T12:34:14.987Z,19.70
2023-01-18T12:36:59.175Z,19.90
2023-01-18T12:39:53.454Z,20.46
2023-01-18T12:42:38.034Z,19.81
2023-01-18T12:45:19.013Z,20.79
2023-01-18T12:47:55.646Z,21.12
2023-01-18T12:50:26.682Z,20.72
2023-01-18T12:53:01.022Z,20.52
2023-01-18T12:55:32.771Z,20.76
2023-01-18T12:58:03.787Z,19.76
2023-01-18T13:00:36.530Z,19.26
2023-01-18T13:03:11.296Z,19.62
2023-01-18T13:05:52.328Z,20.23
2023-01-18T13:08:29.299Z,19.73
2023-01-18T13:11:06.899Z,18.98
2023-01-18T13:13:36.804Z,19.43
2023-01-18T13:16:16.608Z,18.56
2023-01-18T13:18:50.929Z,19.73
2023-01-18T13:21:25.484Z,20.19
2023-01-18T13:24:02.971Z,20.34
2023-01-18T13:26:32.684Z,20.16
2023-01-18T13:29:18.085Z,20.02
2023-01-18T13:31:47.559Z,19.83
2023-01-18T13:34:32.522Z,20.16
2023-01-18T13:37:14.437Z,20.41
2023-01-18T13:39:48.684Z,19.48
2023-01-18T13:42:34.260Z,19.71
2023-01-18T13:45:17.558Z,19.54
2023-01-18T13:47:58.343Z,20.18
2023-01-18T13:50:45.398Z,20.10
2023-01-18T13:53:24.700Z,19.89
2023-01-18T13:56:27.949Z,19.79
2023-01-18T13:59:17.517Z,19.34
2023-01-18T14:01:49.938Z,19.27
2023-01-18T14:04:31.885Z,19.24
2023-01-18T14:07:02.161Z,19.24
2023-01-18T14:09:36.287Z,19.16
2023-01-18T14:12:05.619Z,19.15
2023-01-18T14:14:35.450Z,19.12
2023-01-18T14:17:16.299Z,19.31
2023-01-18T14:20:09.140Z,19.05
2023-01-18T14:22:56.537Z,19.14
2023-01-18T14:25:49.138Z,19.07
2023-01-18T14:28:22.368Z,18.78
2023-01-18T14:30:50.883Z,18.66
2023-01-18T14:33:26.792Z,18.46
2023-01-18T14:35:58.216Z,18.36
2023-01-18T14:38:27.289Z,17.97
2023-01-18T14:40:57.706Z,18.14
2023-01-18T14:43:31.765Z,17.93
2023-01-18T14:46:03.683Z,18.00
2023-01-18T14:48:35.870Z,17.62
2023-01-18T14:51:05.604Z,17.91
2023-01-18T14:53:41.843Z,17.85
2023-01-18T14:56:16.326Z,17.64
2023-01-18T14:58:51.896Z,17.48
2023-01-18T15:01:32.431Z,17.44
2023-01-18T15:04:03.681Z,17.54
2023-01-18T15:06:42.330Z,17.10
2023-01-18T15:09:12.407Z,17.57
2023-01-18T15:11:43.311Z,17.52
2023-01-18T15:14:17.808Z,17.51
2023-01-18T15:16:48.207Z,17.41
2023-01-18T15:19:21.524Z,17.19
2023-01-18T15:21:49.951Z,17.12
2023-01-18T15:24:20.329Z,17.02
2023-01-18T15:26:52.651Z,17.15
2023-01-18T15:29:25.932Z,17.09
2023-01-18T15:31:56.276Z,16.98
2023-01-18T15:34:30.745Z,17.04
2023-01-18T15:37:00.541Z,17.00
2023-01-18T15:39:29.032Z,17.04
2023-01-18T15:41:58.160Z,17.06
2023-01-18T15:44:41.065Z,17.05
2023-01-18T15:47:17.172Z,16.72
2023-01-18T15:49:50.713Z,16.67
2023-01-18T15:52:36.938Z,16.82
2023-01-18T15:55:06.776Z,16.58
2023-01-18T15:57:37.398Z,16.66
2023-01-18T16:00:07.058Z,16.56
2023-01-18T16:02:35.555Z,16.21
2023-01-18T16:05:22.311Z,16.58
2023-01-18T16:07:55.328Z,16.56
2023-01-18T16:10:32.872Z,16.54
2023-01-18T16:13:31.180Z,16.55
2023-01-18T16:16:14.485Z,16.49
2023-01-18T16:18:44.932Z,16.24
2023-01-18T16:21:20.079Z,16.66
2023-01-18T16:23:50.973Z,16.58
2023-01-18T16:26:23.220Z,16.22
2023-01-18T16:28:52.465Z,16.57
2023-01-18T16:31:22.890Z,16.45
2023-01-18T16:33:51.294Z,16.47
2023-01-18T16:36:22.284Z,16.40
2023-01-18T16:38:51.055Z,16.47
2023-01-18T16:41:19.102Z,16.34
2023-01-18T16:43:48.299Z,16.30
2023-01-18T16:46:16.389Z,16.40
2023-01-18T16:48:44.284Z,16.39
2023-01-18T16:51:17.206Z,16.45
2023-01-18T16:53:48.230Z,16.39
2023-01-18T16:56:16.769Z,16.34
2023-01-18T16:58:44.932Z,16.36
2023-01-18T17:01:15.835Z,16.41
2023-01-18T17:03:45.259Z,16.43
2023-01-18T17:06:18.831Z,15.84
2023-01-18T17:08:49.279Z,16.25
2023-01-18T17:11:17.771Z,16.15
2023-01-18T17:13:47.809Z,16.00
2023-01-18T17:16:19.178Z,15.92
2023-01-18T17:18:48.072Z,15.89
2023-01-18T17:21:16.145Z,15.51
2023-01-18T17:23:45.203Z,15.58
2023-01-18T17:26:16.712Z,15.69
2023-01-18T17:28:45.584Z,15.57
2023-01-18T17:31:14.116Z,15.64
2023-01-18T17:33:44.127Z,14.65
2023-01-18T17:36:12.570Z,15.52
2023-01-18T17:38:40.552Z,15.52
2023-01-18T17:41:11.425Z,15.52
2023-01-18T17:43:43.376Z,15.49
2023-01-18T17:46:12.191Z,15.44
2023-01-18T17:48:40.800Z,15.40
2023-01-18T17:51:13.654Z,15.36
2023-01-18T17:53:43.277Z,14.88
2023-01-18T17:56:12.862Z,14.88
2023-01-18T17:58:41.482Z,14.38
2023-01-18T18:01:15.453Z,15.12
2023-01-18T18:03:46.842Z,14.70
2023-01-18T18:06:26.207Z,14.65
2023-01-18T18:08:58.473Z,14.79
2023-01-18T18:11:26.781Z,14.54
2023-01-18T18:13:56.749Z,14.28
2023-01-18T18:16:26.488Z,14.49
2023-01-18T18:18:54.651Z,14.37
2023-01-18T18:21:26.278Z,14.26
2023-01-18T18:23:54.202Z,13.98
2023-01-18T18:26:22.132Z,14.13
2023-01-18T18:28:50.140Z,13.08
2023-01-18T18:31:18.721Z,14.03
2023-01-18T18:33:48.039Z,13.93
2023-01-18T18:39:04.796Z,13.84
2023-01-18T18:41:33.018Z,13.81
2023-01-18T18:44:01.010Z,13.83
2023-01-18T18:46:29.195Z,13.56
2023-01-18T18:48:59.198Z,13.72
2023-01-18T18:51:27.201Z,13.61
2023-01-18T18:53:55.178Z,13.58
2023-01-18T18:56:23.597Z,13.60
2023-01-18T18:58:51.593Z,13.55
2023-01-18T19:01:22.128Z,13.57
2023-01-18T19:03:51.288Z,13.58
2023-01-18T19:06:22.207Z,13.50
2023-01-18T19:08:50.531Z,13.50
2023-01-18T19:11:19.476Z,13.38
2023-01-18T19:13:49.382Z,12.98
2023-01-18T19:16:17.921Z,13.25
2023-01-18T19:18:45.923Z,13.20
2023-01-18T19:21:13.829Z,13.28
2023-01-18T19:23:43.054Z,13.18
2023-01-18T19:26:11.073Z,13.07
2023-01-18T19:28:38.977Z,13.05
2023-01-18T19:31:08.837Z,12.75
2023-01-18T19:33:37.120Z,12.79
2023-01-18T19:36:10.764Z,12.70
2023-01-18T19:38:46.046Z,12.78
2023-01-18T19:41:15.209Z,12.74
2023-01-18T19:43:43.945Z,11.71
2023-01-18T19:46:15.345Z,12.73
2023-01-18T19:48:43.890Z,12.86
2023-01-18T19:51:21.779Z,12.75
2023-01-18T19:53:53.720Z,12.57
2023-01-18T19:56:22.165Z,12.65
2023-01-18T19:58:50.714Z,12.62
2023-01-18T20:01:34.849Z,12.60
2023-01-18T20:04:05.976Z,12.45
2023-01-18T20:06:34.964Z,12.49
2023-01-18T20:09:12.562Z,12.41
2023-01-18T20:11:46.095Z,12.52
2023-01-18T20:14:14.500Z,12.55
2023-01-18T20:16:44.823Z,12.53
2023-01-18T20:19:13.900Z,12.47
2023-01-18T20:21:42.254Z,12.51
2023-01-18T20:24:11.759Z,12.59
2023-01-18T20:26:41.688Z,12.41
2023-01-18T20:29:10.863Z,12.60
2023-01-18T20:31:39.752Z,12.63
2023-01-18T20:34:08.420Z,12.47
2023-01-18T20:36:38.054Z,12.46
2023-01-18T20:39:06.820Z,12.45
2023-01-18T20:41:36.049Z,12.50
2023-01-18T20:44:04.030Z,12.49
2023-01-18T20:46:32.010Z,12.16
2023-01-18T20:49:03.043Z,12.41
2023-01-18T20:51:31.297Z,12.32
2023-01-18T20:53:59.907Z,12.27
2023-01-18T20:56:29.708Z,12.33
2023-01-18T20:58:59.830Z,12.34
2023-01-18T21:01:32.607Z,12.38
2023-01-18T21:04:03.537Z,12.27
2023-01-18T21:06:32.036Z,12.33
2023-01-18T21:09:01.316Z,12.31
2023-01-18T21:11:30.105Z,12.35
2023-01-18T21:14:00.254Z,11.94
2023-01-18T21:16:31.468Z,12.25
2023-01-18T21:19:00.156Z,12.30
2023-01-18T21:21:30.711Z,12.23
2023-01-18T21:23:58.711Z,12.31
2023-01-18T21:26:27.309Z,12.35
2023-01-18T21:28:55.708Z,12.33
2023-01-18T21:31:25.291Z,12.33
2023-01-18T21:33:54.863Z,12.34
2023-01-18T21:36:23.767Z,12.38
2023-01-18T21:38:52.418Z,11.90
2023-01-18T21:41:38.085Z,12.40
2023-01-18T21:44:24.030Z,11.82
2023-01-18T21:46:53.840Z,12.20
2023-01-18T21:52:47.205Z,12.54
2023-01-18T21:55:16.487Z,12.50
2023-01-18T21:57:44.349Z,12.49
2023-01-18T22:00:13.419Z,12.47
2023-01-18T22:02:42.802Z,12.24
2023-01-18T22:05:11.006Z,12.64
2023-01-18T22:07:39.027Z,12.84
2023-01-18T22:10:07.481Z,13.09
2023-01-18T22:12:39.036Z,13.16
2023-01-18T22:15:08.115Z,13.32
2023-01-18T22:17:36.051Z,13.39
2023-01-18T22:20:06.038Z,13.55
2023-01-18T22:22:34.432Z,13.62
2023-01-18T22:25:02.433Z,13.58
2023-01-18T22:27:30.403Z,13.62
2023-01-18T22:29:58.479Z,13.68
2023-01-18T22:32:26.524Z,13.68
2023-01-18T22:34:54.526Z,13.60
2023-01-18T22:37:25.990Z,13.65
2023-01-18T22:39:53.965Z,13.69
2023-01-18T22:42:21.894Z,13.66
2023-01-18T22:44:49.925Z,13.59
2023-01-18T22:47:17.907Z,13.53
2023-01-18T22:49:45.903Z,13.35
2023-01-18T22:52:14.071Z,13.45
2023-01-18T22:54:43.475Z,13.58
2023-01-18T22:57:11.386Z,13.73
2023-01-18T22:59:39.351Z,13.74
2023-01-18T23:02:07.507Z,13.57
2023-01-18T23:04:35.590Z,13.45
2023-01-18T23:07:03.615Z,13.64
2023-01-18T23:09:31.878Z,13.51
2023-01-18T23:12:01.281Z,13.50
2023-01-18T23:14:46.853Z,13.51
2023-01-18T23:17:32.350Z,13.64
2023-01-18T23:20:00.323Z,13.35
2023-01-18T23:22:28.389Z,13.66
2023-01-18T23:24:56.287Z,13.85
2023-01-18T23:27:25.836Z,14.04
2023-01-18T23:29:57.264Z,13.96
2023-01-18T23:32:27.971Z,13.97
2023-01-18T23:34:56.170Z,13.55
2023-01-18T23:37:24.534Z,13.41
2023-01-18T23:40:09.906Z,13.56
2023-01-18T23:42:57.142Z,13.71
2023-01-18T23:45:42.409Z,13.76
2023-01-18T23:48:30.008Z,13.62
2023-01-18T23:51:15.684Z,13.88
2023-01-18T23:54:01.484Z,14.10
2023-01-18T23:56:29.383Z,14.50
2023-01-18T23:58:58.734Z,14.38
